Terminal Aerodrome Forecast
Issued by NWS Wilmington, NC

Home | Current Version | Previous Version | Text Only | Print | Product List | Glossary On
Versions: 1 2 3 4 5 6 7 8 9 10 11 12 13 14
317
FTUS42 KILM 241130
TAFFLO
TAF
KFLO 241130Z 2412/2512 24005KT P6SM SCT035
     FM241800 20007KT P6SM SCT040
     FM250100 20003KT P6SM SKC=

USA.gov is the U.S. government's official web portal to all federal, state and local government web resources and services.